sensor_id;sensor_type;location;lat;lon;timestamp;temperature;humidity
37158;DHT22;23050;51.776;22.638;2023-07-31T00:02:00;17.80;99.90
37158;DHT22;23050;51.776;22.638;2023-07-31T00:04:26;17.80;99.90
37158;DHT22;23050;51.776;22.638;2023-07-31T00:06:51;17.80;99.90
37158;DHT22;23050;51.776;22.638;2023-07-31T00:09:16;17.80;99.90
37158;DHT22;23050;51.776;22.638;2023-07-31T00:11:42;17.80;99.90
37158;DHT22;23050;51.776;22.638;2023-07-31T00:14:07;17.80;99.90
37158;DHT22;23050;51.776;22.638;2023-07-31T00:16:33;17.80;99.90
37158;DHT22;23050;51.776;22.638;2023-07-31T00:18:58;17.80;99.90
37158;DHT22;23050;51.776;22.638;2023-07-31T00:21:24;17.80;99.90
37158;DHT22;23050;51.776;22.638;2023-07-31T00:23:49;17.80;99.90
37158;DHT22;23050;51.776;22.638;2023-07-31T00:26:15;17.80;99.90
37158;DHT22;23050;51.776;22.638;2023-07-31T00:28:41;17.80;99.90
37158;DHT22;23050;51.776;22.638;2023-07-31T00:31:06;17.80;99.90
37158;DHT22;23050;51.776;22.638;2023-07-31T00:33:32;17.80;99.90
37158;DHT22;23050;51.776;22.638;2023-07-31T00:35:57;17.80;99.90
37158;DHT22;23050;51.776;22.638;2023-07-31T00:38:23;17.80;99.90
37158;DHT22;23050;51.776;22.638;2023-07-31T00:40:48;17.80;99.90
37158;DHT22;23050;51.776;22.638;2023-07-31T00:43:13;17.80;99.90
37158;DHT22;23050;51.776;22.638;2023-07-31T00:45:39;17.80;99.90
37158;DHT22;23050;51.776;22.638;2023-07-31T00:48:05;17.80;99.90
37158;DHT22;23050;51.776;22.638;2023-07-31T00:50:31;17.80;99.90
37158;DHT22;23050;51.776;22.638;2023-07-31T00:52:58;17.80;99.90
37158;DHT22;23050;51.776;22.638;2023-07-31T00:55:23;17.80;99.90
37158;DHT22;23050;51.776;22.638;2023-07-31T00:57:49;17.80;99.90
37158;DHT22;23050;51.776;22.638;2023-07-31T01:00:15;17.80;99.90
37158;DHT22;23050;51.776;22.638;2023-07-31T01:02:41;17.80;99.90
37158;DHT22;23050;51.776;22.638;2023-07-31T01:05:06;17.80;99.90
37158;DHT22;23050;51.776;22.638;2023-07-31T01:07:42;17.80;99.90
37158;DHT22;23050;51.776;22.638;2023-07-31T01:12:36;17.70;99.90
37158;DHT22;23050;51.776;22.638;2023-07-31T01:15:03;17.70;99.90
37158;DHT22;23050;51.776;22.638;2023-07-31T01:17:29;17.70;99.90
37158;DHT22;23050;51.776;22.638;2023-07-31T01:19:59;17.70;99.90
37158;DHT22;23050;51.776;22.638;2023-07-31T01:22:30;17.60;99.90
37158;DHT22;23050;51.776;22.638;2023-07-31T01:25:08;17.60;99.90
37158;DHT22;23050;51.776;22.638;2023-07-31T01:27:40;17.60;99.90
37158;DHT22;23050;51.776;22.638;2023-07-31T01:30:11;17.60;99.90
37158;DHT22;23050;51.776;22.638;2023-07-31T01:32:42;17.60;99.90
37158;DHT22;23050;51.776;22.638;2023-07-31T01:35:07;17.60;99.90
37158;DHT22;23050;51.776;22.638;2023-07-31T01:37:34;17.60;99.90
37158;DHT22;23050;51.776;22.638;2023-07-31T01:39:59;17.60;99.90
37158;DHT22;23050;51.776;22.638;2023-07-31T01:42:25;17.60;99.90
37158;DHT22;23050;51.776;22.638;2023-07-31T01:44:50;17.60;99.90
37158;DHT22;23050;51.776;22.638;2023-07-31T01:47:16;17.70;99.90
37158;DHT22;23050;51.776;22.638;2023-07-31T01:49:41;17.70;99.90
37158;DHT22;23050;51.776;22.638;2023-07-31T01:52:06;17.70;99.90
37158;DHT22;23050;51.776;22.638;2023-07-31T01:54:32;17.70;99.90
37158;DHT22;23050;51.776;22.638;2023-07-31T01:56:58;17.70;99.90
37158;DHT22;23050;51.776;22.638;2023-07-31T01:59:24;17.80;99.90
37158;DHT22;23050;51.776;22.638;2023-07-31T02:01:49;17.80;99.90
37158;DHT22;23050;51.776;22.638;2023-07-31T02:04:15;17.70;99.90
37158;DHT22;23050;51.776;22.638;2023-07-31T02:06:40;17.70;99.90
37158;DHT22;23050;51.776;22.638;2023-07-31T02:09:06;17.70;99.90
37158;DHT22;23050;51.776;22.638;2023-07-31T02:11:31;17.60;99.90
37158;DHT22;23050;51.776;22.638;2023-07-31T02:13:57;17.60;99.90
37158;DHT22;23050;51.776;22.638;2023-07-31T02:16:22;17.60;99.90
37158;DHT22;23050;51.776;22.638;2023-07-31T02:18:48;17.60;99.90
37158;DHT22;23050;51.776;22.638;2023-07-31T02:21:13;17.60;99.90
37158;DHT22;23050;51.776;22.638;2023-07-31T02:23:39;17.60;99.90
37158;DHT22;23050;51.776;22.638;2023-07-31T02:26:04;17.50;99.90
37158;DHT22;23050;51.776;22.638;2023-07-31T02:28:30;17.50;99.90
37158;DHT22;23050;51.776;22.638;2023-07-31T02:30:55;17.50;99.90
37158;DHT22;23050;51.776;22.638;2023-07-31T02:33:21;17.50;99.90
37158;DHT22;23050;51.776;22.638;2023-07-31T02:35:46;17.50;99.90
37158;DHT22;23050;51.776;22.638;2023-07-31T02:38:12;17.50;99.90
37158;DHT22;23050;51.776;22.638;2023-07-31T02:40:38;17.50;99.90
37158;DHT22;23050;51.776;22.638;2023-07-31T02:43:04;17.50;99.90
37158;DHT22;23050;51.776;22.638;2023-07-31T02:45:29;17.50;99.90
37158;DHT22;23050;51.776;22.638;2023-07-31T02:47:55;17.50;99.90
37158;DHT22;23050;51.776;22.638;2023-07-31T02:50:20;17.50;99.90
37158;DHT22;23050;51.776;22.638;2023-07-31T02:52:46;17.50;99.90
37158;DHT22;23050;51.776;22.638;2023-07-31T02:55:11;17.50;99.90
37158;DHT22;23050;51.776;22.638;2023-07-31T02:57:37;17.50;99.90
37158;DHT22;23050;51.776;22.638;2023-07-31T03:00:02;17.50;99.90
37158;DHT22;23050;51.776;22.638;2023-07-31T03:02:31;17.50;99.90
37158;DHT22;23050;51.776;22.638;2023-07-31T03:04:56;17.50;99.90
37158;DHT22;23050;51.776;22.638;2023-07-31T03:07:22;17.50;99.90
37158;DHT22;23050;51.776;22.638;2023-07-31T03:09:47;17.40;99.90
37158;DHT22;23050;51.776;22.638;2023-07-31T03:12:13;17.40;99.90
37158;DHT22;23050;51.776;22.638;2023-07-31T03:14:38;17.40;99.90
37158;DHT22;23050;51.776;22.638;2023-07-31T03:17:04;17.40;99.90
37158;DHT22;23050;51.776;22.638;2023-07-31T03:19:32;17.40;99.90
37158;DHT22;23050;51.776;22.638;2023-07-31T03:22:01;17.30;99.90
37158;DHT22;23050;51.776;22.638;2023-07-31T03:24:26;17.30;99.90
37158;DHT22;23050;51.776;22.638;2023-07-31T03:26:53;17.20;99.90
37158;DHT22;23050;51.776;22.638;2023-07-31T03:29:18;17.20;99.90
37158;DHT22;23050;51.776;22.638;2023-07-31T03:31:44;17.20;99.90
37158;DHT22;23050;51.776;22.638;2023-07-31T03:34:09;17.10;99.90
37158;DHT22;23050;51.776;22.638;2023-07-31T03:36:35;17.20;99.90
37158;DHT22;23050;51.776;22.638;2023-07-31T03:39:00;17.20;99.90
37158;DHT22;23050;51.776;22.638;2023-07-31T03:41:26;17.30;99.90
37158;DHT22;23050;51.776;22.638;2023-07-31T03:43:51;17.40;99.90
37158;DHT22;23050;51.776;22.638;2023-07-31T03:46:23;17.40;99.90
37158;DHT22;23050;51.776;22.638;2023-07-31T03:48:49;17.40;99.90
37158;DHT22;23050;51.776;22.638;2023-07-31T03:51:15;17.40;99.90
37158;DHT22;23050;51.776;22.638;2023-07-31T03:53:40;17.40;99.90
37158;DHT22;23050;51.776;22.638;2023-07-31T03:56:06;17.40;99.90
37158;DHT22;23050;51.776;22.638;2023-07-31T03:58:31;17.40;99.90
37158;DHT22;23050;51.776;22.638;2023-07-31T04:00:57;17.40;99.90
37158;DHT22;23050;51.776;22.638;2023-07-31T04:03:22;17.40;99.90
37158;DHT22;23050;51.776;22.638;2023-07-31T04:05:47;17.50;99.90
37158;DHT22;23050;51.776;22.638;2023-07-31T04:08:13;17.60;99.90
37158;DHT22;23050;51.776;22.638;2023-07-31T04:10:38;17.80;99.90
37158;DHT22;23050;51.776;22.638;2023-07-31T04:13:04;17.90;99.90
37158;DHT22;23050;51.776;22.638;2023-07-31T04:15:29;18.00;99.90
37158;DHT22;23050;51.776;22.638;2023-07-31T04:17:55;18.10;99.90
37158;DHT22;23050;51.776;22.638;2023-07-31T04:20:20;18.20;99.90
37158;DHT22;23050;51.776;22.638;2023-07-31T04:22:46;18.20;99.90
37158;DHT22;23050;51.776;22.638;2023-07-31T04:25:11;18.20;99.90
37158;DHT22;23050;51.776;22.638;2023-07-31T04:27:37;18.20;99.90
37158;DHT22;23050;51.776;22.638;2023-07-31T04:30:02;18.20;99.90
37158;DHT22;23050;51.776;22.638;2023-07-31T04:32:28;18.20;99.90
37158;DHT22;23050;51.776;22.638;2023-07-31T04:34:55;18.20;99.90
37158;DHT22;23050;51.776;22.638;2023-07-31T04:37:20;18.20;99.90
37158;DHT22;23050;51.776;22.638;2023-07-31T04:39:46;18.30;99.90
37158;DHT22;23050;51.776;22.638;2023-07-31T04:42:11;18.30;99.90
37158;DHT22;23050;51.776;22.638;2023-07-31T04:44:37;18.40;99.90
37158;DHT22;23050;51.776;22.638;2023-07-31T04:47:02;18.40;99.90
37158;DHT22;23050;51.776;22.638;2023-07-31T04:49:28;18.40;99.90
37158;DHT22;23050;51.776;22.638;2023-07-31T04:51:53;18.50;99.90
37158;DHT22;23050;51.776;22.638;2023-07-31T04:54:19;18.60;99.90
37158;DHT22;23050;51.776;22.638;2023-07-31T04:56:44;18.70;99.90
37158;DHT22;23050;51.776;22.638;2023-07-31T04:59:10;18.90;99.90
37158;DHT22;23050;51.776;22.638;2023-07-31T05:01:35;18.90;99.90
37158;DHT22;23050;51.776;22.638;2023-07-31T05:04:01;18.90;99.90
37158;DHT22;23050;51.776;22.638;2023-07-31T05:06:26;18.90;99.90
37158;DHT22;23050;51.776;22.638;2023-07-31T05:08:51;18.90;99.90
37158;DHT22;23050;51.776;22.638;2023-07-31T05:11:17;18.90;99.90
37158;DHT22;23050;51.776;22.638;2023-07-31T05:13:42;18.90;99.90
37158;DHT22;23050;51.776;22.638;2023-07-31T05:16:08;19.10;99.90
37158;DHT22;23050;51.776;22.638;2023-07-31T05:18:33;19.50;99.90
37158;DHT22;23050;51.776;22.638;2023-07-31T05:20:59;19.80;99.90
37158;DHT22;23050;51.776;22.638;2023-07-31T05:23:24;19.90;99.90
37158;DHT22;23050;51.776;22.638;2023-07-31T05:25:50;19.90;99.90
37158;DHT22;23050;51.776;22.638;2023-07-31T05:28:15;19.90;99.90
37158;DHT22;23050;51.776;22.638;2023-07-31T05:30:41;19.80;99.90
37158;DHT22;23050;51.776;22.638;2023-07-31T05:33:06;19.80;99.90
37158;DHT22;23050;51.776;22.638;2023-07-31T05:35:31;20.50;99.90
37158;DHT22;23050;51.776;22.638;2023-07-31T05:37:57;21.50;93.00
37158;DHT22;23050;51.776;22.638;2023-07-31T05:40:22;22.60;73.90
37158;DHT22;23050;51.776;22.638;2023-07-31T05:42:48;23.30;50.30
37158;DHT22;23050;51.776;22.638;2023-07-31T05:45:13;23.10;42.40
37158;DHT22;23050;51.776;22.638;2023-07-31T05:47:39;23.20;41.90
37158;DHT22;23050;51.776;22.638;2023-07-31T05:50:05;23.90;27.00
37158;DHT22;23050;51.776;22.638;2023-07-31T05:52:30;24.90;20.40
37158;DHT22;23050;51.776;22.638;2023-07-31T05:54:56;26.30;3.00
37158;DHT22;23050;51.776;22.638;2023-07-31T05:57:21;27.80;1.00
37158;DHT22;23050;51.776;22.638;2023-07-31T05:59:46;28.40;1.00
37158;DHT22;23050;51.776;22.638;2023-07-31T06:02:12;28.40;1.00
37158;DHT22;23050;51.776;22.638;2023-07-31T06:04:38;29.20;1.00
37158;DHT22;23050;51.776;22.638;2023-07-31T06:07:04;28.30;1.00
37158;DHT22;23050;51.776;22.638;2023-07-31T06:09:29;27.20;1.00
37158;DHT22;23050;51.776;22.638;2023-07-31T06:11:55;26.90;1.00
37158;DHT22;23050;51.776;22.638;2023-07-31T06:14:20;25.90;1.00
37158;DHT22;23050;51.776;22.638;2023-07-31T06:16:46;24.20;1.00
37158;DHT22;23050;51.776;22.638;2023-07-31T06:19:11;23.50;1.00
37158;DHT22;23050;51.776;22.638;2023-07-31T06:21:39;23.10;1.70
37158;DHT22;23050;51.776;22.638;2023-07-31T06:24:05;22.70;6.90
37158;DHT22;23050;51.776;22.638;2023-07-31T06:26:31;22.50;13.00
37158;DHT22;23050;51.776;22.638;2023-07-31T06:28:56;22.50;14.00
37158;DHT22;23050;51.776;22.638;2023-07-31T06:31:21;22.90;13.90
37158;DHT22;23050;51.776;22.638;2023-07-31T06:33:48;23.10;7.10
37158;DHT22;23050;51.776;22.638;2023-07-31T06:36:14;23.50;3.70
37158;DHT22;23050;51.776;22.638;2023-07-31T06:38:39;24.10;1.00
37158;DHT22;23050;51.776;22.638;2023-07-31T06:41:05;24.40;1.00
37158;DHT22;23050;51.776;22.638;2023-07-31T06:43:30;24.60;1.00
37158;DHT22;23050;51.776;22.638;2023-07-31T06:45:56;25.10;1.00
37158;DHT22;23050;51.776;22.638;2023-07-31T06:48:21;25.60;1.00
37158;DHT22;23050;51.776;22.638;2023-07-31T06:50:47;26.30;1.00
37158;DHT22;23050;51.776;22.638;2023-07-31T06:53:12;27.20;1.00
37158;DHT22;23050;51.776;22.638;2023-07-31T06:55:38;26.50;1.00
37158;DHT22;23050;51.776;22.638;2023-07-31T06:58:03;26.00;1.00
37158;DHT22;23050;51.776;22.638;2023-07-31T07:00:29;25.10;1.00
37158;DHT22;23050;51.776;22.638;2023-07-31T07:02:54;24.90;1.00
37158;DHT22;23050;51.776;22.638;2023-07-31T07:05:20;24.40;1.00
37158;DHT22;23050;51.776;22.638;2023-07-31T07:07:45;24.20;1.00
37158;DHT22;23050;51.776;22.638;2023-07-31T07:10:11;23.80;1.00
37158;DHT22;23050;51.776;22.638;2023-07-31T07:12:36;23.90;1.00
37158;DHT22;23050;51.776;22.638;2023-07-31T07:15:02;24.30;1.00
37158;DHT22;23050;51.776;22.638;2023-07-31T07:17:28;24.70;1.00
37158;DHT22;23050;51.776;22.638;2023-07-31T07:19:56;25.50;1.00
37158;DHT22;23050;51.776;22.638;2023-07-31T07:22:22;26.50;1.00
37158;DHT22;23050;51.776;22.638;2023-07-31T07:24:47;27.20;1.00
37158;DHT22;23050;51.776;22.638;2023-07-31T07:27:13;28.20;1.00
37158;DHT22;23050;51.776;22.638;2023-07-31T07:29:38;29.50;1.00
37158;DHT22;23050;51.776;22.638;2023-07-31T07:32:04;30.10;1.00
37158;DHT22;23050;51.776;22.638;2023-07-31T07:34:30;29.10;1.00
37158;DHT22;23050;51.776;22.638;2023-07-31T07:36:55;27.80;1.00
37158;DHT22;23050;51.776;22.638;2023-07-31T07:39:21;27.00;1.00
37158;DHT22;23050;51.776;22.638;2023-07-31T07:41:47;26.80;1.00
37158;DHT22;23050;51.776;22.638;2023-07-31T07:44:12;26.40;1.00
37158;DHT22;23050;51.776;22.638;2023-07-31T07:46:38;26.60;1.00
37158;DHT22;23050;51.776;22.638;2023-07-31T07:49:04;26.70;1.00
37158;DHT22;23050;51.776;22.638;2023-07-31T07:51:29;26.30;1.00
37158;DHT22;23050;51.776;22.638;2023-07-31T07:53:57;26.40;1.00
37158;DHT22;23050;51.776;22.638;2023-07-31T07:56:23;27.30;1.00
37158;DHT22;23050;51.776;22.638;2023-07-31T07:58:49;28.10;1.00
37158;DHT22;23050;51.776;22.638;2023-07-31T08:01:15;29.60;1.00
37158;DHT22;23050;51.776;22.638;2023-07-31T08:03:42;31.30;1.00
37158;DHT22;23050;51.776;22.638;2023-07-31T08:06:07;32.30;1.00
37158;DHT22;23050;51.776;22.638;2023-07-31T08:08:35;32.70;1.00
37158;DHT22;23050;51.776;22.638;2023-07-31T08:11:00;32.10;1.00
37158;DHT22;23050;51.776;22.638;2023-07-31T08:13:26;31.80;1.00
37158;DHT22;23050;51.776;22.638;2023-07-31T08:15:51;30.60;1.00
37158;DHT22;23050;51.776;22.638;2023-07-31T08:18:17;28.80;1.00
37158;DHT22;23050;51.776;22.638;2023-07-31T08:20:42;27.80;1.00
37158;DHT22;23050;51.776;22.638;2023-07-31T08:23:08;27.20;1.00
37158;DHT22;23050;51.776;22.638;2023-07-31T08:25:34;28.00;1.00
37158;DHT22;23050;51.776;22.638;2023-07-31T08:28:01;29.60;1.00
37158;DHT22;23050;51.776;22.638;2023-07-31T08:30:26;30.30;1.00
37158;DHT22;23050;51.776;22.638;2023-07-31T08:32:52;31.30;1.00
37158;DHT22;23050;51.776;22.638;2023-07-31T08:35:17;31.80;1.00
37158;DHT22;23050;51.776;22.638;2023-07-31T08:37:42;32.10;1.00
37158;DHT22;23050;51.776;22.638;2023-07-31T08:40:08;31.50;1.00
37158;DHT22;23050;51.776;22.638;2023-07-31T08:42:34;30.40;1.00
37158;DHT22;23050;51.776;22.638;2023-07-31T08:44:59;30.10;1.00
37158;DHT22;23050;51.776;22.638;2023-07-31T08:47:25;28.90;1.00
37158;DHT22;23050;51.776;22.638;2023-07-31T08:49:51;29.00;1.00
37158;DHT22;23050;51.776;22.638;2023-07-31T08:52:17;28.30;1.00
37158;DHT22;23050;51.776;22.638;2023-07-31T08:54:42;27.00;1.00
37158;DHT22;23050;51.776;22.638;2023-07-31T08:57:08;26.90;1.00
37158;DHT22;23050;51.776;22.638;2023-07-31T08:59:34;27.30;1.00
37158;DHT22;23050;51.776;22.638;2023-07-31T09:02:05;27.70;1.00
37158;DHT22;23050;51.776;22.638;2023-07-31T09:04:31;27.70;1.00
37158;DHT22;23050;51.776;22.638;2023-07-31T09:06:59;27.50;1.00
37158;DHT22;23050;51.776;22.638;2023-07-31T09:09:25;27.70;1.00
37158;DHT22;23050;51.776;22.638;2023-07-31T09:11:51;27.90;1.00
37158;DHT22;23050;51.776;22.638;2023-07-31T09:14:17;28.40;1.00
37158;DHT22;23050;51.776;22.638;2023-07-31T09:16:55;28.80;1.00
37158;DHT22;23050;51.776;22.638;2023-07-31T09:19:25;28.70;1.00
37158;DHT22;23050;51.776;22.638;2023-07-31T09:21:50;28.30;1.00
37158;DHT22;23050;51.776;22.638;2023-07-31T09:24:24;28.60;1.00
37158;DHT22;23050;51.776;22.638;2023-07-31T09:26:51;28.30;1.00
37158;DHT22;23050;51.776;22.638;2023-07-31T09:29:19;29.40;1.00
37158;DHT22;23050;51.776;22.638;2023-07-31T09:31:44;29.60;1.00
37158;DHT22;23050;51.776;22.638;2023-07-31T09:34:10;29.60;1.00
37158;DHT22;23050;51.776;22.638;2023-07-31T09:36:43;30.20;1.00
37158;DHT22;23050;51.776;22.638;2023-07-31T09:39:09;30.20;1.00
37158;DHT22;23050;51.776;22.638;2023-07-31T09:41:38;30.40;1.00
37158;DHT22;23050;51.776;22.638;2023-07-31T09:44:04;30.20;1.00
37158;DHT22;23050;51.776;22.638;2023-07-31T09:46:30;29.10;1.00
37158;DHT22;23050;51.776;22.638;2023-07-31T09:51:50;29.70;1.00
37158;DHT22;23050;51.776;22.638;2023-07-31T09:54:16;30.20;1.00
37158;DHT22;23050;51.776;22.638;2023-07-31T09:56:42;30.50;1.00
37158;DHT22;23050;51.776;22.638;2023-07-31T09:59:10;30.10;1.00
37158;DHT22;23050;51.776;22.638;2023-07-31T10:01:36;29.70;1.00
37158;DHT22;23050;51.776;22.638;2023-07-31T10:04:02;30.10;1.00
37158;DHT22;23050;51.776;22.638;2023-07-31T10:06:28;30.50;1.00
37158;DHT22;23050;51.776;22.638;2023-07-31T10:08:54;31.00;1.00
37158;DHT22;23050;51.776;22.638;2023-07-31T10:11:20;31.00;1.00
37158;DHT22;23050;51.776;22.638;2023-07-31T10:13:47;31.30;1.00
37158;DHT22;23050;51.776;22.638;2023-07-31T10:16:12;30.70;1.00
37158;DHT22;23050;51.776;22.638;2023-07-31T10:18:38;30.10;1.00
37158;DHT22;23050;51.776;22.638;2023-07-31T10:21:05;29.80;1.00
37158;DHT22;23050;51.776;22.638;2023-07-31T10:23:31;29.70;1.00
37158;DHT22;23050;51.776;22.638;2023-07-31T10:25:56;29.40;1.00
37158;DHT22;23050;51.776;22.638;2023-07-31T10:28:22;29.50;1.00
37158;DHT22;23050;51.776;22.638;2023-07-31T10:30:48;29.80;1.00
37158;DHT22;23050;51.776;22.638;2023-07-31T10:33:14;30.10;1.00
37158;DHT22;23050;51.776;22.638;2023-07-31T10:35:40;29.30;1.00
37158;DHT22;23050;51.776;22.638;2023-07-31T10:38:12;28.30;1.00
37158;DHT22;23050;51.776;22.638;2023-07-31T10:40:38;27.70;1.00
37158;DHT22;23050;51.776;22.638;2023-07-31T10:43:04;28.20;1.00
37158;DHT22;23050;51.776;22.638;2023-07-31T10:45:41;28.70;1.00
37158;DHT22;23050;51.776;22.638;2023-07-31T10:48:12;29.20;1.00
37158;DHT22;23050;51.776;22.638;2023-07-31T10:50:38;29.20;1.00
37158;DHT22;23050;51.776;22.638;2023-07-31T10:53:10;28.60;1.00
37158;DHT22;23050;51.776;22.638;2023-07-31T10:55:47;28.30;1.00
37158;DHT22;23050;51.776;22.638;2023-07-31T10:58:14;27.80;1.00
37158;DHT22;23050;51.776;22.638;2023-07-31T11:00:43;27.90;1.00
37158;DHT22;23050;51.776;22.638;2023-07-31T11:03:13;28.00;1.00
37158;DHT22;23050;51.776;22.638;2023-07-31T11:08:10;27.40;1.00
37158;DHT22;23050;51.776;22.638;2023-07-31T11:10:35;27.40;1.00
37158;DHT22;23050;51.776;22.638;2023-07-31T11:13:01;27.00;1.00
37158;DHT22;23050;51.776;22.638;2023-07-31T11:15:29;27.20;1.00
37158;DHT22;23050;51.776;22.638;2023-07-31T11:17:55;27.30;1.00
37158;DHT22;23050;51.776;22.638;2023-07-31T11:20:26;27.20;1.00
37158;DHT22;23050;51.776;22.638;2023-07-31T11:22:52;26.80;1.00
37158;DHT22;23050;51.776;22.638;2023-07-31T11:25:17;26.30;1.00
37158;DHT22;23050;51.776;22.638;2023-07-31T11:27:43;26.30;1.00
37158;DHT22;23050;51.776;22.638;2023-07-31T11:30:09;26.00;1.00
37158;DHT22;23050;51.776;22.638;2023-07-31T11:32:38;26.00;1.00
37158;DHT22;23050;51.776;22.638;2023-07-31T11:35:03;25.80;1.00
37158;DHT22;23050;51.776;22.638;2023-07-31T11:37:40;25.40;1.00
37158;DHT22;23050;51.776;22.638;2023-07-31T11:40:06;25.40;1.00
37158;DHT22;23050;51.776;22.638;2023-07-31T11:42:32;25.90;1.00
37158;DHT22;23050;51.776;22.638;2023-07-31T11:44:57;25.80;1.00
37158;DHT22;23050;51.776;22.638;2023-07-31T11:47:23;25.90;1.00
37158;DHT22;23050;51.776;22.638;2023-07-31T11:49:50;26.10;1.00
37158;DHT22;23050;51.776;22.638;2023-07-31T11:52:16;26.70;1.00
37158;DHT22;23050;51.776;22.638;2023-07-31T11:54:44;26.60;1.00
37158;DHT22;23050;51.776;22.638;2023-07-31T11:57:10;26.10;1.00
37158;DHT22;23050;51.776;22.638;2023-07-31T11:59:37;26.00;1.00
37158;DHT22;23050;51.776;22.638;2023-07-31T12:02:03;26.20;1.00
37158;DHT22;23050;51.776;22.638;2023-07-31T12:04:28;26.20;1.00
37158;DHT22;23050;51.776;22.638;2023-07-31T12:06:54;26.10;1.00
37158;DHT22;23050;51.776;22.638;2023-07-31T12:09:20;25.90;1.00
37158;DHT22;23050;51.776;22.638;2023-07-31T12:11:46;25.80;1.00
37158;DHT22;23050;51.776;22.638;2023-07-31T12:14:19;26.30;1.00
37158;DHT22;23050;51.776;22.638;2023-07-31T12:16:45;27.00;1.00
37158;DHT22;23050;51.776;22.638;2023-07-31T12:19:10;27.50;1.00
37158;DHT22;23050;51.776;22.638;2023-07-31T12:21:36;28.00;1.00
37158;DHT22;23050;51.776;22.638;2023-07-31T12:24:03;27.70;1.00
37158;DHT22;23050;51.776;22.638;2023-07-31T12:26:33;27.00;1.00
37158;DHT22;23050;51.776;22.638;2023-07-31T12:28:59;27.00;1.00
37158;DHT22;23050;51.776;22.638;2023-07-31T12:31:25;26.80;1.00
37158;DHT22;23050;51.776;22.638;2023-07-31T12:33:52;26.40;1.00
37158;DHT22;23050;51.776;22.638;2023-07-31T12:36:22;26.30;1.00
37158;DHT22;23050;51.776;22.638;2023-07-31T12:38:48;26.10;1.00
37158;DHT22;23050;51.776;22.638;2023-07-31T12:41:14;26.20;1.00
37158;DHT22;23050;51.776;22.638;2023-07-31T12:43:41;26.40;1.00
37158;DHT22;23050;51.776;22.638;2023-07-31T12:46:06;26.00;1.00
37158;DHT22;23050;51.776;22.638;2023-07-31T12:48:35;26.20;1.00
37158;DHT22;23050;51.776;22.638;2023-07-31T12:51:01;26.40;1.00
37158;DHT22;23050;51.776;22.638;2023-07-31T12:53:27;26.50;1.00
37158;DHT22;23050;51.776;22.638;2023-07-31T12:55:54;26.10;1.00
37158;DHT22;23050;51.776;22.638;2023-07-31T12:58:19;25.90;1.00
37158;DHT22;23050;51.776;22.638;2023-07-31T13:00:46;25.90;1.00
37158;DHT22;23050;51.776;22.638;2023-07-31T13:03:12;25.90;1.00
37158;DHT22;23050;51.776;22.638;2023-07-31T13:05:37;25.70;1.00
37158;DHT22;23050;51.776;22.638;2023-07-31T13:08:03;25.50;1.00
37158;DHT22;23050;51.776;22.638;2023-07-31T13:10:28;25.60;1.00
37158;DHT22;23050;51.776;22.638;2023-07-31T13:12:55;25.90;1.00
37158;DHT22;23050;51.776;22.638;2023-07-31T13:15:21;26.10;1.00
37158;DHT22;23050;51.776;22.638;2023-07-31T13:17:46;26.40;1.00
37158;DHT22;23050;51.776;22.638;2023-07-31T13:20:12;26.60;1.00
37158;DHT22;23050;51.776;22.638;2023-07-31T13:22:38;26.70;1.00
37158;DHT22;23050;51.776;22.638;2023-07-31T13:25:03;26.90;1.00
37158;DHT22;23050;51.776;22.638;2023-07-31T13:27:29;26.80;1.00
37158;DHT22;23050;51.776;22.638;2023-07-31T13:29:54;26.40;1.00
37158;DHT22;23050;51.776;22.638;2023-07-31T13:32:20;26.20;1.00
37158;DHT22;23050;51.776;22.638;2023-07-31T13:34:46;26.40;1.00
37158;DHT22;23050;51.776;22.638;2023-07-31T13:37:12;26.90;1.00
37158;DHT22;23050;51.776;22.638;2023-07-31T13:39:38;27.20;1.00
37158;DHT22;23050;51.776;22.638;2023-07-31T13:42:04;27.90;1.00
37158;DHT22;23050;51.776;22.638;2023-07-31T13:44:32;28.20;1.00
37158;DHT22;23050;51.776;22.638;2023-07-31T13:46:57;28.10;1.00
37158;DHT22;23050;51.776;22.638;2023-07-31T13:49:22;27.90;1.00
37158;DHT22;23050;51.776;22.638;2023-07-31T13:51:48;27.80;1.00
37158;DHT22;23050;51.776;22.638;2023-07-31T13:54:13;28.10;1.00
37158;DHT22;23050;51.776;22.638;2023-07-31T13:56:41;27.70;1.00
37158;DHT22;23050;51.776;22.638;2023-07-31T13:59:06;27.30;1.00
37158;DHT22;23050;51.776;22.638;2023-07-31T14:01:32;27.00;1.00
37158;DHT22;23050;51.776;22.638;2023-07-31T14:03:57;26.30;1.00
37158;DHT22;23050;51.776;22.638;2023-07-31T14:06:23;26.10;1.00
37158;DHT22;23050;51.776;22.638;2023-07-31T14:08:49;26.20;1.00
37158;DHT22;23050;51.776;22.638;2023-07-31T14:11:14;26.00;1.00
37158;DHT22;23050;51.776;22.638;2023-07-31T14:13:39;25.60;1.00
37158;DHT22;23050;51.776;22.638;2023-07-31T14:16:05;25.50;1.00
37158;DHT22;23050;51.776;22.638;2023-07-31T14:18:31;25.60;1.00
37158;DHT22;23050;51.776;22.638;2023-07-31T14:20:57;25.60;1.00
37158;DHT22;23050;51.776;22.638;2023-07-31T14:23:22;25.60;1.00
37158;DHT22;23050;51.776;22.638;2023-07-31T14:25:48;25.50;1.00
37158;DHT22;23050;51.776;22.638;2023-07-31T14:28:13;25.70;1.00
37158;DHT22;23050;51.776;22.638;2023-07-31T14:30:39;25.60;1.00
37158;DHT22;23050;51.776;22.638;2023-07-31T14:33:04;25.50;1.00
37158;DHT22;23050;51.776;22.638;2023-07-31T14:35:30;25.40;1.00
37158;DHT22;23050;51.776;22.638;2023-07-31T14:37:55;25.30;1.00
37158;DHT22;23050;51.776;22.638;2023-07-31T14:40:21;25.30;1.00
37158;DHT22;23050;51.776;22.638;2023-07-31T14:42:46;25.50;1.00
37158;DHT22;23050;51.776;22.638;2023-07-31T14:45:12;25.50;1.00
37158;DHT22;23050;51.776;22.638;2023-07-31T14:47:37;25.50;1.00
37158;DHT22;23050;51.776;22.638;2023-07-31T14:50:03;25.70;1.00
37158;DHT22;23050;51.776;22.638;2023-07-31T14:52:28;25.90;1.00
37158;DHT22;23050;51.776;22.638;2023-07-31T14:54:54;26.00;1.00
37158;DHT22;23050;51.776;22.638;2023-07-31T14:57:20;26.00;1.00
37158;DHT22;23050;51.776;22.638;2023-07-31T14:59:46;25.90;1.00
37158;DHT22;23050;51.776;22.638;2023-07-31T15:02:11;25.90;1.00
37158;DHT22;23050;51.776;22.638;2023-07-31T15:04:37;26.00;1.00
37158;DHT22;23050;51.776;22.638;2023-07-31T15:07:03;25.90;1.00
37158;DHT22;23050;51.776;22.638;2023-07-31T15:09:28;25.80;1.00
37158;DHT22;23050;51.776;22.638;2023-07-31T15:11:55;25.80;1.00
37158;DHT22;23050;51.776;22.638;2023-07-31T15:14:20;26.30;1.00
37158;DHT22;23050;51.776;22.638;2023-07-31T15:16:46;27.20;1.00
37158;DHT22;23050;51.776;22.638;2023-07-31T15:19:12;27.80;1.00
37158;DHT22;23050;51.776;22.638;2023-07-31T15:21:37;27.90;1.00
37158;DHT22;23050;51.776;22.638;2023-07-31T15:24:03;27.90;1.00
37158;DHT22;23050;51.776;22.638;2023-07-31T15:26:29;27.30;1.00